sensor_id;sensor_type;location;lat;lon;timestamp;P1;durP1;ratioP1;P2;durP2;ratioP2
74833;SDS011;63361;52.384;20.930;2023-02-22T00:00:15;13.18;;;3.90;;
74833;SDS011;63361;52.384;20.930;2023-02-22T00:02:53;13.93;;;3.72;;
74833;SDS011;63361;52.384;20.930;2023-02-22T00:05:23;14.13;;;3.40;;
74833;SDS011;63361;52.384;20.930;2023-02-22T00:07:52;17.90;;;3.20;;
74833;SDS011;63361;52.384;20.930;2023-02-22T00:10:20;15.43;;;3.67;;
74833;SDS011;63361;52.384;20.930;2023-02-22T00:12:48;11.43;;;2.60;;
74833;SDS011;63361;52.384;20.930;2023-02-22T00:15:19;10.13;;;3.00;;
74833;SDS011;63361;52.384;20.930;2023-02-22T00:17:47;12.75;;;2.72;;
74833;SDS011;63361;52.384;20.930;2023-02-22T00:20:13;14.07;;;2.93;;
74833;SDS011;63361;52.384;20.930;2023-02-22T00:22:44;11.80;;;2.72;;
74833;SDS011;63361;52.384;20.930;2023-02-22T00:25:12;17.08;;;2.63;;
74833;SDS011;63361;52.384;20.930;2023-02-22T00:27:38;14.05;;;3.05;;
74833;SDS011;63361;52.384;20.930;2023-02-22T00:30:04;14.93;;;2.70;;
74833;SDS011;63361;52.384;20.930;2023-02-22T00:32:30;17.45;;;2.60;;
74833;SDS011;63361;52.384;20.930;2023-02-22T00:34:56;16.38;;;2.67;;
74833;SDS011;63361;52.384;20.930;2023-02-22T00:37:21;9.77;;;2.70;;
74833;SDS011;63361;52.384;20.930;2023-02-22T00:39:47;16.47;;;3.13;;
74833;SDS011;63361;52.384;20.930;2023-02-22T00:42:15;10.20;;;2.85;;
74833;SDS011;63361;52.384;20.930;2023-02-22T00:44:42;9.32;;;2.67;;
74833;SDS011;63361;52.384;20.930;2023-02-22T00:47:07;11.07;;;2.60;;
74833;SDS011;63361;52.384;20.930;2023-02-22T00:49:33;16.35;;;3.65;;
74833;SDS011;63361;52.384;20.930;2023-02-22T00:51:59;15.80;;;3.13;;
74833;SDS011;63361;52.384;20.930;2023-02-22T00:54:24;15.57;;;3.03;;
74833;SDS011;63361;52.384;20.930;2023-02-22T00:56:50;14.57;;;2.83;;
74833;SDS011;63361;52.384;20.930;2023-02-22T00:59:15;12.20;;;2.87;;
74833;SDS011;63361;52.384;20.930;2023-02-22T01:01:41;8.33;;;2.87;;
74833;SDS011;63361;52.384;20.930;2023-02-22T01:04:07;19.67;;;3.40;;
74833;SDS011;63361;52.384;20.930;2023-02-22T01:06:33;12.00;;;3.45;;
74833;SDS011;63361;52.384;20.930;2023-02-22T01:08:58;13.17;;;3.53;;
74833;SDS011;63361;52.384;20.930;2023-02-22T01:11:24;15.63;;;4.00;;
74833;SDS011;63361;52.384;20.930;2023-02-22T01:13:49;17.73;;;3.93;;
74833;SDS011;63361;52.384;20.930;2023-02-22T01:16:18;11.43;;;3.30;;
74833;SDS011;63361;52.384;20.930;2023-02-22T01:18:43;18.13;;;3.70;;
74833;SDS011;63361;52.384;20.930;2023-02-22T01:21:09;15.03;;;3.83;;
74833;SDS011;63361;52.384;20.930;2023-02-22T01:23:34;22.77;;;4.03;;
74833;SDS011;63361;52.384;20.930;2023-02-22T01:26:00;14.23;;;3.80;;
74833;SDS011;63361;52.384;20.930;2023-02-22T01:28:25;15.37;;;3.30;;
74833;SDS011;63361;52.384;20.930;2023-02-22T01:30:50;15.27;;;3.57;;
74833;SDS011;63361;52.384;20.930;2023-02-22T01:33:16;12.13;;;4.37;;
74833;SDS011;63361;52.384;20.930;2023-02-22T01:35:42;12.48;;;3.38;;
74833;SDS011;63361;52.384;20.930;2023-02-22T01:38:08;13.77;;;3.53;;
74833;SDS011;63361;52.384;20.930;2023-02-22T01:40:38;15.90;;;3.92;;
74833;SDS011;63361;52.384;20.930;2023-02-22T01:43:14;13.30;;;3.60;;
74833;SDS011;63361;52.384;20.930;2023-02-22T01:45:41;15.45;;;3.78;;
74833;SDS011;63361;52.384;20.930;2023-02-22T01:48:08;11.98;;;3.63;;
74833;SDS011;63361;52.384;20.930;2023-02-22T01:50:36;12.17;;;3.80;;
74833;SDS011;63361;52.384;20.930;2023-02-22T01:53:08;14.32;;;3.90;;
74833;SDS011;63361;52.384;20.930;2023-02-22T01:55:37;14.32;;;3.50;;
74833;SDS011;63361;52.384;20.930;2023-02-22T01:58:03;14.00;;;4.00;;
74833;SDS011;63361;52.384;20.930;2023-02-22T02:00:30;18.70;;;4.07;;
74833;SDS011;63361;52.384;20.930;2023-02-22T02:03:04;14.02;;;3.58;;
74833;SDS011;63361;52.384;20.930;2023-02-22T02:05:34;16.90;;;4.22;;
74833;SDS011;63361;52.384;20.930;2023-02-22T02:08:04;12.32;;;3.53;;
74833;SDS011;63361;52.384;20.930;2023-02-22T02:10:40;10.70;;;3.53;;
74833;SDS011;63361;52.384;20.930;2023-02-22T02:13:06;8.43;;;2.78;;
74833;SDS011;63361;52.384;20.930;2023-02-22T02:15:32;10.32;;;2.80;;
74833;SDS011;63361;52.384;20.930;2023-02-22T02:18:00;9.20;;;2.87;;
74833;SDS011;63361;52.384;20.930;2023-02-22T02:26:37;7.88;;;2.20;;
74833;SDS011;63361;52.384;20.930;2023-02-22T02:34:40;10.77;;;2.63;;
74833;SDS011;63361;52.384;20.930;2023-02-22T02:46:00;9.57;;;3.10;;
74833;SDS011;63361;52.384;20.930;2023-02-22T02:48:31;13.30;;;3.13;;
74833;SDS011;63361;52.384;20.930;2023-02-22T02:50:59;7.20;;;2.38;;
74833;SDS011;63361;52.384;20.930;2023-02-22T02:53:30;9.10;;;2.15;;
74833;SDS011;63361;52.384;20.930;2023-02-22T02:56:00;11.25;;;2.60;;
74833;SDS011;63361;52.384;20.930;2023-02-22T02:58:26;12.03;;;2.47;;
74833;SDS011;63361;52.384;20.930;2023-02-22T03:00:53;7.97;;;2.42;;
74833;SDS011;63361;52.384;20.930;2023-02-22T03:03:41;13.50;;;2.85;;
74833;SDS011;63361;52.384;20.930;2023-02-22T03:06:36;11.65;;;3.22;;
74833;SDS011;63361;52.384;20.930;2023-02-22T03:09:49;9.52;;;2.53;;
74833;SDS011;63361;52.384;20.930;2023-02-22T03:15:13;8.63;;;3.20;;
74833;SDS011;63361;52.384;20.930;2023-02-22T03:28:51;12.32;;;3.60;;
74833;SDS011;63361;52.384;20.930;2023-02-22T03:31:23;11.02;;;2.97;;
74833;SDS011;63361;52.384;20.930;2023-02-22T03:33:59;7.20;;;3.30;;
74833;SDS011;63361;52.384;20.930;2023-02-22T03:36:32;10.32;;;2.97;;
74833;SDS011;63361;52.384;20.930;2023-02-22T03:39:03;8.77;;;2.90;;
74833;SDS011;63361;52.384;20.930;2023-02-22T03:41:32;11.43;;;3.33;;
74833;SDS011;63361;52.384;20.930;2023-02-22T03:44:04;13.50;;;4.35;;
74833;SDS011;63361;52.384;20.930;2023-02-22T03:46:33;8.10;;;3.65;;
74833;SDS011;63361;52.384;20.930;2023-02-22T03:49:13;8.07;;;4.45;;
74833;SDS011;63361;52.384;20.930;2023-02-22T03:51:47;6.77;;;3.10;;
74833;SDS011;63361;52.384;20.930;2023-02-22T03:54:12;6.57;;;2.22;;
74833;SDS011;63361;52.384;20.930;2023-02-22T03:56:44;5.27;;;2.53;;
74833;SDS011;63361;52.384;20.930;2023-02-22T03:59:14;4.65;;;1.95;;
74833;SDS011;63361;52.384;20.930;2023-02-22T04:01:40;4.63;;;1.95;;
74833;SDS011;63361;52.384;20.930;2023-02-22T04:04:06;6.50;;;1.93;;
74833;SDS011;63361;52.384;20.930;2023-02-22T04:09:25;5.45;;;2.13;;
74833;SDS011;63361;52.384;20.930;2023-02-22T04:11:50;5.63;;;1.87;;
74833;SDS011;63361;52.384;20.930;2023-02-22T04:14:15;8.70;;;1.87;;
74833;SDS011;63361;52.384;20.930;2023-02-22T04:16:41;6.05;;;1.98;;
74833;SDS011;63361;52.384;20.930;2023-02-22T04:19:06;6.20;;;2.00;;
74833;SDS011;63361;52.384;20.930;2023-02-22T04:21:32;4.37;;;1.67;;
74833;SDS011;63361;52.384;20.930;2023-02-22T04:23:57;4.20;;;2.03;;
74833;SDS011;63361;52.384;20.930;2023-02-22T04:26:23;4.75;;;1.75;;
74833;SDS011;63361;52.384;20.930;2023-02-22T04:28:49;4.23;;;1.77;;
74833;SDS011;63361;52.384;20.930;2023-02-22T04:31:14;3.90;;;1.70;;
74833;SDS011;63361;52.384;20.930;2023-02-22T04:33:40;6.03;;;2.05;;
74833;SDS011;63361;52.384;20.930;2023-02-22T04:36:06;3.80;;;1.60;;
74833;SDS011;63361;52.384;20.930;2023-02-22T04:38:32;3.42;;;1.50;;
74833;SDS011;63361;52.384;20.930;2023-02-22T04:40:57;4.30;;;1.60;;
74833;SDS011;63361;52.384;20.930;2023-02-22T04:43:22;3.40;;;1.30;;
74833;SDS011;63361;52.384;20.930;2023-02-22T04:45:48;6.20;;;1.50;;
74833;SDS011;63361;52.384;20.930;2023-02-22T04:48:13;4.63;;;1.27;;
74833;SDS011;63361;52.384;20.930;2023-02-22T04:50:39;4.03;;;1.53;;
74833;SDS011;63361;52.384;20.930;2023-02-22T04:53:04;4.63;;;2.07;;
74833;SDS011;63361;52.384;20.930;2023-02-22T04:55:30;4.68;;;1.60;;
74833;SDS011;63361;52.384;20.930;2023-02-22T04:57:55;5.10;;;1.60;;
74833;SDS011;63361;52.384;20.930;2023-02-22T05:00:21;3.43;;;1.40;;
74833;SDS011;63361;52.384;20.930;2023-02-22T05:02:47;4.20;;;1.40;;
74833;SDS011;63361;52.384;20.930;2023-02-22T05:05:14;4.22;;;1.70;;
74833;SDS011;63361;52.384;20.930;2023-02-22T05:07:41;7.53;;;1.83;;
74833;SDS011;63361;52.384;20.930;2023-02-22T05:10:06;5.23;;;1.70;;
74833;SDS011;63361;52.384;20.930;2023-02-22T05:12:32;5.50;;;1.90;;
74833;SDS011;63361;52.384;20.930;2023-02-22T05:14:57;10.90;;;2.00;;
74833;SDS011;63361;52.384;20.930;2023-02-22T05:17:22;6.20;;;2.30;;
74833;SDS011;63361;52.384;20.930;2023-02-22T05:19:48;5.67;;;2.33;;
74833;SDS011;63361;52.384;20.930;2023-02-22T05:22:13;7.43;;;2.83;;
74833;SDS011;63361;52.384;20.930;2023-02-22T05:24:38;7.87;;;2.90;;
74833;SDS011;63361;52.384;20.930;2023-02-22T05:27:03;7.97;;;3.07;;
74833;SDS011;63361;52.384;20.930;2023-02-22T05:29:29;11.10;;;3.63;;
74833;SDS011;63361;52.384;20.930;2023-02-22T05:31:54;10.20;;;4.13;;
74833;SDS011;63361;52.384;20.930;2023-02-22T05:34:19;11.63;;;4.07;;
74833;SDS011;63361;52.384;20.930;2023-02-22T05:36:45;10.40;;;3.90;;
74833;SDS011;63361;52.384;20.930;2023-02-22T05:39:10;12.90;;;4.93;;
74833;SDS011;63361;52.384;20.930;2023-02-22T05:41:36;9.10;;;3.50;;
74833;SDS011;63361;52.384;20.930;2023-02-22T05:44:01;10.13;;;3.90;;
74833;SDS011;63361;52.384;20.930;2023-02-22T05:46:27;11.32;;;5.07;;
74833;SDS011;63361;52.384;20.930;2023-02-22T05:48:52;8.00;;;4.10;;
74833;SDS011;63361;52.384;20.930;2023-02-22T05:51:18;8.37;;;3.70;;
74833;SDS011;63361;52.384;20.930;2023-02-22T05:53:43;7.32;;;3.30;;
74833;SDS011;63361;52.384;20.930;2023-02-22T05:56:09;8.83;;;3.47;;
74833;SDS011;63361;52.384;20.930;2023-02-22T05:58:34;7.60;;;3.50;;
74833;SDS011;63361;52.384;20.930;2023-02-22T06:00:59;9.80;;;3.50;;
74833;SDS011;63361;52.384;20.930;2023-02-22T06:03:25;7.13;;;3.33;;
74833;SDS011;63361;52.384;20.930;2023-02-22T06:05:50;9.87;;;4.27;;
74833;SDS011;63361;52.384;20.930;2023-02-22T06:08:15;9.27;;;4.10;;
74833;SDS011;63361;52.384;20.930;2023-02-22T06:10:42;8.93;;;4.10;;
74833;SDS011;63361;52.384;20.930;2023-02-22T06:13:08;8.32;;;3.75;;
74833;SDS011;63361;52.384;20.930;2023-02-22T06:15:33;12.90;;;5.00;;
74833;SDS011;63361;52.384;20.930;2023-02-22T06:17:59;10.77;;;3.97;;
74833;SDS011;63361;52.384;20.930;2023-02-22T06:20:26;8.30;;;3.43;;
74833;SDS011;63361;52.384;20.930;2023-02-22T06:22:54;7.60;;;2.85;;
74833;SDS011;63361;52.384;20.930;2023-02-22T06:25:21;8.68;;;3.50;;
74833;SDS011;63361;52.384;20.930;2023-02-22T06:27:49;7.90;;;3.72;;
74833;SDS011;63361;52.384;20.930;2023-02-22T06:30:16;9.33;;;3.57;;
74833;SDS011;63361;52.384;20.930;2023-02-22T06:32:44;8.07;;;3.15;;
74833;SDS011;63361;52.384;20.930;2023-02-22T06:35:09;9.13;;;2.97;;
74833;SDS011;63361;52.384;20.930;2023-02-22T06:37:35;7.37;;;2.83;;
74833;SDS011;63361;52.384;20.930;2023-02-22T06:40:00;8.30;;;2.95;;
74833;SDS011;63361;52.384;20.930;2023-02-22T06:42:25;6.13;;;2.83;;
74833;SDS011;63361;52.384;20.930;2023-02-22T06:44:51;5.23;;;2.33;;
74833;SDS011;63361;52.384;20.930;2023-02-22T06:47:16;13.63;;;4.50;;
74833;SDS011;63361;52.384;20.930;2023-02-22T06:49:41;10.77;;;3.50;;
74833;SDS011;63361;52.384;20.930;2023-02-22T06:52:08;8.73;;;3.00;;
74833;SDS011;63361;52.384;20.930;2023-02-22T06:54:34;11.13;;;3.35;;
74833;SDS011;63361;52.384;20.930;2023-02-22T06:57:00;10.38;;;3.60;;
74833;SDS011;63361;52.384;20.930;2023-02-22T06:59:26;9.40;;;3.47;;
74833;SDS011;63361;52.384;20.930;2023-02-22T07:01:52;11.97;;;3.30;;
74833;SDS011;63361;52.384;20.930;2023-02-22T07:04:17;7.93;;;2.85;;
74833;SDS011;63361;52.384;20.930;2023-02-22T07:06:46;9.17;;;2.93;;
74833;SDS011;63361;52.384;20.930;2023-02-22T07:09:15;10.82;;;3.20;;
74833;SDS011;63361;52.384;20.930;2023-02-22T07:11:41;6.53;;;2.60;;
74833;SDS011;63361;52.384;20.930;2023-02-22T07:14:07;4.70;;;1.60;;
74833;SDS011;63361;52.384;20.930;2023-02-22T07:16:32;8.10;;;2.20;;
74833;SDS011;63361;52.384;20.930;2023-02-22T07:18:58;7.40;;;2.57;;
74833;SDS011;63361;52.384;20.930;2023-02-22T07:21:27;6.93;;;2.50;;
74833;SDS011;63361;52.384;20.930;2023-02-22T07:23:53;7.47;;;3.08;;
74833;SDS011;63361;52.384;20.930;2023-02-22T07:26:20;5.37;;;1.80;;
74833;SDS011;63361;52.384;20.930;2023-02-22T07:28:46;5.03;;;2.00;;
74833;SDS011;63361;52.384;20.930;2023-02-22T07:31:12;6.15;;;2.40;;
74833;SDS011;63361;52.384;20.930;2023-02-22T07:33:37;5.77;;;2.00;;
74833;SDS011;63361;52.384;20.930;2023-02-22T07:36:02;7.13;;;2.67;;
74833;SDS011;63361;52.384;20.930;2023-02-22T07:38:28;10.10;;;3.37;;
74833;SDS011;63361;52.384;20.930;2023-02-22T07:40:53;6.60;;;2.50;;
74833;SDS011;63361;52.384;20.930;2023-02-22T07:43:25;6.07;;;2.55;;
74833;SDS011;63361;52.384;20.930;2023-02-22T07:45:53;6.25;;;2.58;;
74833;SDS011;63361;52.384;20.930;2023-02-22T07:48:20;8.70;;;2.60;;
74833;SDS011;63361;52.384;20.930;2023-02-22T07:50:47;7.87;;;2.40;;
74833;SDS011;63361;52.384;20.930;2023-02-22T07:53:14;9.55;;;3.72;;
74833;SDS011;63361;52.384;20.930;2023-02-22T07:55:57;6.57;;;2.78;;
74833;SDS011;63361;52.384;20.930;2023-02-22T07:58:24;6.82;;;2.80;;
74833;SDS011;63361;52.384;20.930;2023-02-22T08:00:51;5.73;;;2.83;;
74833;SDS011;63361;52.384;20.930;2023-02-22T08:03:18;4.30;;;1.75;;
74833;SDS011;63361;52.384;20.930;2023-02-22T08:05:46;4.78;;;2.40;;
74833;SDS011;63361;52.384;20.930;2023-02-22T08:08:13;9.13;;;2.65;;
74833;SDS011;63361;52.384;20.930;2023-02-22T08:10:40;4.97;;;2.22;;
74833;SDS011;63361;52.384;20.930;2023-02-22T08:13:06;6.13;;;2.43;;
74833;SDS011;63361;52.384;20.930;2023-02-22T08:15:39;4.40;;;1.80;;
74833;SDS011;63361;52.384;20.930;2023-02-22T08:18:06;5.38;;;2.33;;
74833;SDS011;63361;52.384;20.930;2023-02-22T08:20:33;5.35;;;2.33;;
74833;SDS011;63361;52.384;20.930;2023-02-22T08:22:59;4.93;;;1.73;;
74833;SDS011;63361;52.384;20.930;2023-02-22T08:25:26;5.03;;;2.10;;
74833;SDS011;63361;52.384;20.930;2023-02-22T08:27:55;6.70;;;2.53;;
74833;SDS011;63361;52.384;20.930;2023-02-22T08:30:25;7.63;;;2.47;;
74833;SDS011;63361;52.384;20.930;2023-02-22T08:32:53;5.83;;;2.30;;
74833;SDS011;63361;52.384;20.930;2023-02-22T08:35:19;10.03;;;3.10;;
74833;SDS011;63361;52.384;20.930;2023-02-22T08:37:47;6.32;;;2.35;;
74833;SDS011;63361;52.384;20.930;2023-02-22T08:40:18;4.82;;;1.50;;
74833;SDS011;63361;52.384;20.930;2023-02-22T08:42:45;6.60;;;1.92;;
74833;SDS011;63361;52.384;20.930;2023-02-22T08:45:11;4.73;;;1.90;;
74833;SDS011;63361;52.384;20.930;2023-02-22T08:47:37;4.85;;;1.98;;
74833;SDS011;63361;52.384;20.930;2023-02-22T08:50:03;4.87;;;1.50;;
74833;SDS011;63361;52.384;20.930;2023-02-22T08:52:29;5.00;;;1.70;;
74833;SDS011;63361;52.384;20.930;2023-02-22T08:54:55;5.30;;;1.77;;
74833;SDS011;63361;52.384;20.930;2023-02-22T08:57:21;3.97;;;1.70;;
74833;SDS011;63361;52.384;20.930;2023-02-22T08:59:46;5.03;;;2.17;;
74833;SDS011;63361;52.384;20.930;2023-02-22T09:02:15;11.20;;;3.00;;
74833;SDS011;63361;52.384;20.930;2023-02-22T09:04:42;7.63;;;2.67;;
74833;SDS011;63361;52.384;20.930;2023-02-22T09:07:08;6.88;;;2.63;;
74833;SDS011;63361;52.384;20.930;2023-02-22T09:09:33;6.47;;;2.43;;
74833;SDS011;63361;52.384;20.930;2023-02-22T09:11:59;4.95;;;2.05;;
74833;SDS011;63361;52.384;20.930;2023-02-22T09:14:25;6.22;;;2.33;;
74833;SDS011;63361;52.384;20.930;2023-02-22T09:16:51;5.10;;;1.97;;
74833;SDS011;63361;52.384;20.930;2023-02-22T09:19:16;4.87;;;1.80;;
74833;SDS011;63361;52.384;20.930;2023-02-22T09:21:41;4.77;;;2.23;;
74833;SDS011;63361;52.384;20.930;2023-02-22T09:24:07;5.47;;;2.37;;
74833;SDS011;63361;52.384;20.930;2023-02-22T09:26:36;5.73;;;2.17;;
74833;SDS011;63361;52.384;20.930;2023-02-22T09:29:03;4.97;;;2.00;;
74833;SDS011;63361;52.384;20.930;2023-02-22T09:31:36;6.25;;;2.05;;
74833;SDS011;63361;52.384;20.930;2023-02-22T09:34:04;4.18;;;1.90;;
74833;SDS011;63361;52.384;20.930;2023-02-22T09:36:38;3.88;;;1.55;;
74833;SDS011;63361;52.384;20.930;2023-02-22T09:39:05;5.57;;;2.25;;
74833;SDS011;63361;52.384;20.930;2023-02-22T09:42:17;5.27;;;2.00;;
74833;SDS011;63361;52.384;20.930;2023-02-22T09:47:33;4.77;;;2.00;;
74833;SDS011;63361;52.384;20.930;2023-02-22T09:50:13;5.53;;;2.28;;
74833;SDS011;63361;52.384;20.930;2023-02-22T09:53:43;7.72;;;3.20;;
74833;SDS011;63361;52.384;20.930;2023-02-22T09:55:46;6.30;;;2.45;;
74833;SDS011;63361;52.384;20.930;2023-02-22T09:58:31;10.05;;;2.88;;
74833;SDS011;63361;52.384;20.930;2023-02-22T10:09:44;10.05;;;3.63;;
74833;SDS011;63361;52.384;20.930;2023-02-22T10:17:25;7.03;;;2.53;;
74833;SDS011;63361;52.384;20.930;2023-02-22T10:20:19;5.60;;;2.13;;
74833;SDS011;63361;52.384;20.930;2023-02-22T10:25:26;7.47;;;3.53;;
74833;SDS011;63361;52.384;20.930;2023-02-22T10:28:15;15.75;;;4.43;;
74833;SDS011;63361;52.384;20.930;2023-02-22T10:30:46;6.78;;;2.45;;
74833;SDS011;63361;52.384;20.930;2023-02-22T10:33:25;5.67;;;2.00;;
74833;SDS011;63361;52.384;20.930;2023-02-22T10:35:56;7.57;;;2.92;;
74833;SDS011;63361;52.384;20.930;2023-02-22T10:38:23;6.32;;;2.90;;
74833;SDS011;63361;52.384;20.930;2023-02-22T10:40:55;6.03;;;2.05;;
74833;SDS011;63361;52.384;20.930;2023-02-22T10:43:25;8.70;;;2.90;;
74833;SDS011;63361;52.384;20.930;2023-02-22T10:45:52;9.37;;;3.60;;
74833;SDS011;63361;52.384;20.930;2023-02-22T10:48:21;9.00;;;3.15;;
74833;SDS011;63361;52.384;20.930;2023-02-22T10:50:58;6.05;;;2.83;;
74833;SDS011;63361;52.384;20.930;2023-02-22T10:53:26;7.88;;;3.13;;
74833;SDS011;63361;52.384;20.930;2023-02-22T10:56:08;9.87;;;2.70;;
74833;SDS011;63361;52.384;20.930;2023-02-22T10:58:43;8.13;;;2.10;;
74833;SDS011;63361;52.384;20.930;2023-02-22T11:01:19;6.15;;;2.55;;
74833;SDS011;63361;52.384;20.930;2023-02-22T11:06:23;9.95;;;2.95;;
74833;SDS011;63361;52.384;20.930;2023-02-22T11:08:48;4.97;;;1.80;;
74833;SDS011;63361;52.384;20.930;2023-02-22T11:11:25;7.10;;;3.10;;
74833;SDS011;63361;52.384;20.930;2023-02-22T11:13:53;5.72;;;2.42;;
74833;SDS011;63361;52.384;20.930;2023-02-22T11:21:44;7.28;;;2.60;;
74833;SDS011;63361;52.384;20.930;2023-02-22T11:24:12;6.97;;;2.70;;
74833;SDS011;63361;52.384;20.930;2023-02-22T11:26:43;7.57;;;2.55;;
74833;SDS011;63361;52.384;20.930;2023-02-22T11:29:33;5.38;;;2.38;;
74833;SDS011;63361;52.384;20.930;2023-02-22T11:32:02;7.00;;;2.15;;
74833;SDS011;63361;52.384;20.930;2023-02-22T11:34:38;12.95;;;5.03;;
74833;SDS011;63361;52.384;20.930;2023-02-22T11:40:31;9.85;;;2.55;;
74833;SDS011;63361;52.384;20.930;2023-02-22T11:43:07;8.93;;;3.58;;
74833;SDS011;63361;52.384;20.930;2023-02-22T11:48:24;11.27;;;3.97;;
74833;SDS011;63361;52.384;20.930;2023-02-22T11:50:57;8.87;;;3.40;;
74833;SDS011;63361;52.384;20.930;2023-02-22T11:56:24;8.88;;;3.50;;
74833;SDS011;63361;52.384;20.930;2023-02-22T12:10:07;10.10;;;3.60;;
74833;SDS011;63361;52.384;20.930;2023-02-22T12:16:12;5.97;;;2.63;;
74833;SDS011;63361;52.384;20.930;2023-02-22T12:18:52;5.83;;;2.10;;
74833;SDS011;63361;52.384;20.930;2023-02-22T12:21:40;7.80;;;1.73;;
74833;SDS011;63361;52.384;20.930;2023-02-22T12:24:11;4.95;;;2.10;;
74833;SDS011;63361;52.384;20.930;2023-02-22T12:26:41;6.25;;;2.40;;
74833;SDS011;63361;52.384;20.930;2023-02-22T12:29:30;8.13;;;2.95;;
74833;SDS011;63361;52.384;20.930;2023-02-22T12:34:58;5.38;;;2.20;;
74833;SDS011;63361;52.384;20.930;2023-02-22T12:45:43;5.37;;;2.07;;
74833;SDS011;63361;52.384;20.930;2023-02-22T12:51:30;7.78;;;2.58;;
74833;SDS011;63361;52.384;20.930;2023-02-22T12:54:00;6.07;;;1.90;;
74833;SDS011;63361;52.384;20.930;2023-02-22T13:02:25;8.68;;;2.40;;
74833;SDS011;63361;52.384;20.930;2023-02-22T13:04:55;6.38;;;2.05;;
74833;SDS011;63361;52.384;20.930;2023-02-22T13:21:15;5.43;;;2.60;;
74833;SDS011;63361;52.384;20.930;2023-02-22T13:24:01;5.40;;;2.35;;
74833;SDS011;63361;52.384;20.930;2023-02-22T13:29:15;8.52;;;3.28;;
74833;SDS011;63361;52.384;20.930;2023-02-22T13:31:49;8.48;;;3.15;;
74833;SDS011;63361;52.384;20.930;2023-02-22T13:37:13;7.63;;;2.97;;
74833;SDS011;63361;52.384;20.930;2023-02-22T13:39:59;6.32;;;2.42;;
74833;SDS011;63361;52.384;20.930;2023-02-22T13:42:47;8.35;;;2.70;;
74833;SDS011;63361;52.384;20.930;2023-02-22T13:45:40;6.03;;;2.40;;
74833;SDS011;63361;52.384;20.930;2023-02-22T13:53:56;7.10;;;2.67;;
74833;SDS011;63361;52.384;20.930;2023-02-22T13:56:26;5.40;;;1.90;;
74833;SDS011;63361;52.384;20.930;2023-02-22T13:58:56;5.65;;;2.45;;
74833;SDS011;63361;52.384;20.930;2023-02-22T14:01:43;5.40;;;1.73;;
74833;SDS011;63361;52.384;20.930;2023-02-22T14:06:50;6.88;;;1.95;;
74833;SDS011;63361;52.384;20.930;2023-02-22T14:17:37;7.40;;;2.22;;
74833;SDS011;63361;52.384;20.930;2023-02-22T14:22:49;7.65;;;2.28;;
74833;SDS011;63361;52.384;20.930;2023-02-22T14:25:35;11.60;;;2.75;;
74833;SDS011;63361;52.384;20.930;2023-02-22T14:28:05;10.43;;;2.53;;
74833;SDS011;63361;52.384;20.930;2023-02-22T14:30:34;8.93;;;3.60;;
74833;SDS011;63361;52.384;20.930;2023-02-22T14:33:02;5.88;;;2.42;;
74833;SDS011;63361;52.384;20.930;2023-02-22T14:35:33;14.83;;;4.80;;
74833;SDS011;63361;52.384;20.930;2023-02-22T14:38:05;9.93;;;3.65;;
74833;SDS011;63361;52.384;20.930;2023-02-22T14:40:42;8.80;;;3.08;;
74833;SDS011;63361;52.384;20.930;2023-02-22T14:43:16;8.77;;;3.25;;
74833;SDS011;63361;52.384;20.930;2023-02-22T14:45:48;10.05;;;3.45;;
74833;SDS011;63361;52.384;20.930;2023-02-22T14:48:20;8.47;;;2.33;;
74833;SDS011;63361;52.384;20.930;2023-02-22T14:51:18;5.07;;;1.90;;
74833;SDS011;63361;52.384;20.930;2023-02-22T14:56:24;9.55;;;2.90;;
74833;SDS011;63361;52.384;20.930;2023-02-22T15:01:32;7.63;;;3.20;;
74833;SDS011;63361;52.384;20.930;2023-02-22T15:06:49;21.15;;;6.47;;
74833;SDS011;63361;52.384;20.930;2023-02-22T15:09:17;14.95;;;5.07;;
74833;SDS011;63361;52.384;20.930;2023-02-22T15:14:47;7.13;;;3.03;;
74833;SDS011;63361;52.384;20.930;2023-02-22T15:19:39;6.77;;;2.40;;
74833;SDS011;63361;52.384;20.930;2023-02-22T15:22:06;7.38;;;2.80;;
74833;SDS011;63361;52.384;20.930;2023-02-22T15:25:05;7.55;;;2.70;;
74833;SDS011;63361;52.384;20.930;2023-02-22T15:27:32;7.60;;;3.13;;
74833;SDS011;63361;52.384;20.930;2023-02-22T15:30:02;7.45;;;3.17;;
74833;SDS011;63361;52.384;20.930;2023-02-22T15:32:34;7.00;;;3.17;;
74833;SDS011;63361;52.384;20.930;2023-02-22T15:37:42;7.65;;;2.85;;
74833;SDS011;63361;52.384;20.930;2023-02-22T15:40:13;6.07;;;2.85;;
74833;SDS011;63361;52.384;20.930;2023-02-22T15:42:42;8.45;;;2.88;;
74833;SDS011;63361;52.384;20.930;2023-02-22T15:45:16;8.03;;;3.13;;
74833;SDS011;63361;52.384;20.930;2023-02-22T15:47:47;6.43;;;2.67;;
74833;SDS011;63361;52.384;20.930;2023-02-22T15:50:14;8.65;;;3.28;;
74833;SDS011;63361;52.384;20.930;2023-02-22T15:53:41;6.82;;;3.13;;
74833;SDS011;63361;52.384;20.930;2023-02-22T15:55:56;9.00;;;3.05;;
74833;SDS011;63361;52.384;20.930;2023-02-22T15:58:24;6.50;;;2.77;;
74833;SDS011;63361;52.384;20.930;2023-02-22T16:01:00;8.25;;;2.70;;
74833;SDS011;63361;52.384;20.930;2023-02-22T16:03:26;8.00;;;2.83;;
74833;SDS011;63361;52.384;20.930;2023-02-22T16:06:02;7.72;;;2.95;;
74833;SDS011;63361;52.384;20.930;2023-02-22T16:08:42;7.25;;;3.22;;
74833;SDS011;63361;52.384;20.930;2023-02-22T16:11:21;7.13;;;3.03;;
74833;SDS011;63361;52.384;20.930;2023-02-22T16:14:05;7.57;;;2.90;;
74833;SDS011;63361;52.384;20.930;2023-02-22T16:16:47;10.20;;;3.40;;
74833;SDS011;63361;52.384;20.930;2023-02-22T16:21:51;10.57;;;3.78;;
74833;SDS011;63361;52.384;20.930;2023-02-22T16:24:26;13.60;;;4.85;;
74833;SDS011;63361;52.384;20.930;2023-02-22T16:27:03;9.57;;;3.55;;
74833;SDS011;63361;52.384;20.930;2023-02-22T16:29:31;9.07;;;3.95;;
74833;SDS011;63361;52.384;20.930;2023-02-22T16:31:57;7.43;;;3.40;;
74833;SDS011;63361;52.384;20.930;2023-02-22T16:34:22;17.67;;;5.77;;
74833;SDS011;63361;52.384;20.930;2023-02-22T16:36:48;8.77;;;3.27;;
74833;SDS011;63361;52.384;20.930;2023-02-22T16:39:35;9.18;;;4.03;;
74833;SDS011;63361;52.384;20.930;2023-02-22T16:42:01;9.68;;;4.47;;
74833;SDS011;63361;52.384;20.930;2023-02-22T16:44:29;12.00;;;4.82;;
74833;SDS011;63361;52.384;20.930;2023-02-22T16:46:58;50.03;;;12.90;;
74833;SDS011;63361;52.384;20.930;2023-02-22T16:49:24;11.40;;;4.10;;
74833;SDS011;63361;52.384;20.930;2023-02-22T16:51:51;11.23;;;4.20;;
74833;SDS011;63361;52.384;20.930;2023-02-22T16:54:23;10.82;;;4.03;;
74833;SDS011;63361;52.384;20.930;2023-02-22T16:56:52;9.02;;;4.55;;
74833;SDS011;63361;52.384;20.930;2023-02-22T16:59:20;14.40;;;6.03;;
74833;SDS011;63361;52.384;20.930;2023-02-22T17:01:45;11.50;;;4.63;;
74833;SDS011;63361;52.384;20.930;2023-02-22T17:04:18;9.73;;;4.27;;
74833;SDS011;63361;52.384;20.930;2023-02-22T17:06:45;9.13;;;4.38;;
74833;SDS011;63361;52.384;20.930;2023-02-22T17:09:11;13.80;;;5.15;;
74833;SDS011;63361;52.384;20.930;2023-02-22T17:11:36;9.27;;;4.67;;
74833;SDS011;63361;52.384;20.930;2023-02-22T17:14:03;11.77;;;5.20;;
74833;SDS011;63361;52.384;20.930;2023-02-22T17:16:29;10.65;;;5.80;;
74833;SDS011;63361;52.384;20.930;2023-02-22T17:18:54;9.50;;;4.50;;
74833;SDS011;63361;52.384;20.930;2023-02-22T17:21:20;10.50;;;6.03;;
74833;SDS011;63361;52.384;20.930;2023-02-22T17:23:46;10.80;;;5.43;;
74833;SDS011;63361;52.384;20.930;2023-02-22T17:26:12;9.77;;;3.87;;
74833;SDS011;63361;52.384;20.930;2023-02-22T17:28:38;10.65;;;4.22;;
74833;SDS011;63361;52.384;20.930;2023-02-22T17:31:04;9.43;;;3.80;;